createdAt,value
2023-03-04T00:02:21.510Z,26.77
2023-03-04T00:04:48.318Z,26.93
2023-03-04T00:07:17.065Z,26.57
2023-03-04T00:09:44.542Z,26.10
2023-03-04T00:12:11.293Z,26.90
2023-03-04T00:14:37.928Z,26.40
2023-03-04T00:17:04.649Z,27.73
2023-03-04T00:19:31.520Z,26.47
2023-03-04T00:21:58.148Z,25.50
2023-03-04T00:24:25.187Z,27.10
2023-03-04T00:26:51.871Z,25.43
2023-03-04T00:29:18.520Z,26.13
2023-03-04T00:31:45.488Z,24.40
2023-03-04T00:34:12.144Z,25.40
2023-03-04T00:36:39.009Z,26.03
2023-03-04T00:39:05.730Z,24.80
2023-03-04T00:41:32.335Z,25.33
2023-03-04T00:43:58.963Z,24.80
2023-03-04T00:46:25.619Z,24.60
2023-03-04T00:48:52.745Z,24.27
2023-03-04T00:51:19.533Z,24.70
2023-03-04T00:53:47.479Z,25.70
2023-03-04T00:56:14.472Z,25.77
2023-03-04T00:58:41.234Z,26.80
2023-03-04T01:01:08.196Z,25.50
2023-03-04T01:03:34.831Z,24.70
2023-03-04T01:06:01.620Z,25.87
2023-03-04T01:08:28.261Z,25.43
2023-03-04T01:10:54.874Z,25.93
2023-03-04T01:13:21.515Z,25.03
2023-03-04T01:15:48.734Z,22.47
2023-03-04T01:18:15.484Z,24.43
2023-03-04T01:20:42.138Z,25.27
2023-03-04T01:23:08.812Z,24.67
2023-03-04T01:25:35.483Z,24.80
2023-03-04T01:28:02.277Z,22.73
2023-03-04T01:30:29.012Z,22.33
2023-03-04T01:32:56.565Z,24.53
2023-03-04T01:35:23.495Z,24.30
2023-03-04T01:37:50.127Z,23.33
2023-03-04T01:44:00.831Z,23.20
2023-03-04T01:46:28.106Z,24.43
2023-03-04T01:48:54.858Z,22.93
2023-03-04T01:51:21.849Z,22.50
2023-03-04T01:53:54.919Z,22.53
2023-03-04T01:56:38.226Z,23.90
2023-03-04T01:59:16.822Z,23.00
2023-03-04T02:01:48.236Z,22.20
2023-03-04T02:04:16.458Z,21.33
2023-03-04T02:06:43.549Z,21.80
2023-03-04T02:09:10.906Z,20.73
2023-03-04T02:11:38.208Z,19.50
2023-03-04T02:14:05.520Z,20.73
2023-03-04T02:16:32.509Z,21.83
2023-03-04T02:18:59.545Z,19.93
2023-03-04T02:21:33.821Z,20.00
2023-03-04T02:24:07.185Z,22.07
2023-03-04T02:26:35.261Z,19.87
2023-03-04T02:29:03.269Z,19.87
2023-03-04T02:31:37.759Z,20.37
2023-03-04T02:34:06.444Z,20.00
2023-03-04T02:36:34.490Z,19.60
2023-03-04T02:39:04.308Z,20.13
2023-03-04T02:41:31.502Z,20.43
2023-03-04T02:43:59.201Z,20.57
2023-03-04T02:46:27.093Z,19.20
2023-03-04T02:48:54.071Z,21.63
2023-03-04T02:51:21.667Z,20.13
2023-03-04T02:53:48.462Z,21.60
2023-03-04T02:56:15.456Z,21.23
2023-03-04T02:58:42.118Z,20.97
2023-03-04T03:01:10.430Z,20.33
2023-03-04T03:03:37.775Z,20.47
2023-03-04T03:06:04.673Z,19.03
2023-03-04T03:08:31.553Z,19.80
2023-03-04T03:11:00.505Z,20.13
2023-03-04T03:13:29.106Z,20.10
2023-03-04T03:15:56.380Z,18.80
2023-03-04T03:18:24.736Z,18.23
2023-03-04T03:20:51.398Z,21.07
2023-03-04T03:23:18.210Z,18.67
2023-03-04T03:25:44.972Z,19.67
2023-03-04T03:28:11.630Z,19.73
2023-03-04T03:30:38.412Z,19.13
2023-03-04T03:33:06.548Z,19.47
2023-03-04T03:35:33.562Z,19.47
2023-03-04T03:38:00.257Z,18.90
2023-03-04T03:40:26.901Z,16.80
2023-03-04T03:42:53.616Z,16.13
2023-03-04T03:45:20.551Z,17.00
2023-03-04T03:47:47.182Z,16.53
2023-03-04T03:50:13.828Z,16.73
2023-03-04T03:52:40.459Z,17.47
2023-03-04T03:55:07.233Z,17.00
2023-03-04T03:57:33.987Z,16.50
2023-03-04T04:00:01.141Z,17.73
2023-03-04T04:02:27.994Z,16.47
2023-03-04T04:04:54.677Z,16.27
2023-03-04T04:07:21.466Z,16.77
2023-03-04T04:09:48.252Z,16.97
2023-03-04T04:12:16.673Z,15.03
2023-03-04T04:14:43.274Z,15.37
2023-03-04T04:17:10.409Z,14.67
2023-03-04T04:19:37.068Z,16.00
2023-03-04T04:22:03.811Z,14.67
2023-03-04T04:24:30.920Z,15.50
2023-03-04T04:26:58.121Z,15.83
2023-03-04T04:29:24.720Z,15.77
2023-03-04T04:31:51.440Z,15.63
2023-03-04T04:34:18.022Z,16.40
2023-03-04T04:36:44.846Z,16.13
2023-03-04T04:39:11.574Z,15.97
2023-03-04T04:41:40.101Z,14.93
2023-03-04T04:44:06.889Z,16.67
2023-03-04T04:46:33.835Z,15.57
2023-03-04T04:49:00.909Z,13.17
2023-03-04T04:51:28.315Z,12.53
2023-03-04T04:53:55.695Z,11.60
2023-03-04T04:56:25.151Z,13.20
2023-03-04T04:58:52.287Z,13.40
2023-03-04T05:01:19.061Z,14.83
2023-03-04T05:03:45.809Z,13.33
2023-03-04T05:06:12.874Z,13.60
2023-03-04T05:08:39.492Z,13.80
2023-03-04T05:11:06.761Z,13.60
2023-03-04T05:13:33.441Z,14.83
2023-03-04T05:16:00.238Z,14.10
2023-03-04T05:18:27.826Z,13.00
2023-03-04T05:20:59.152Z,11.83
2023-03-04T05:23:27.898Z,11.57
2023-03-04T05:25:54.735Z,9.07
2023-03-04T05:28:21.398Z,8.70
2023-03-04T05:30:48.237Z,7.70
2023-03-04T05:33:15.500Z,7.87
2023-03-04T05:35:42.676Z,7.10
2023-03-04T05:38:10.598Z,6.43
2023-03-04T05:40:37.943Z,6.73
2023-03-04T05:43:04.744Z,6.90
2023-03-04T05:45:31.548Z,6.27
2023-03-04T05:47:59.424Z,6.57
2023-03-04T05:50:26.600Z,7.83
2023-03-04T05:52:53.576Z,7.80
2023-03-04T05:55:20.196Z,7.53
2023-03-04T05:57:47.147Z,7.33
2023-03-04T06:00:14.652Z,6.87
2023-03-04T06:02:42.467Z,7.77
2023-03-04T06:05:10.021Z,6.80
2023-03-04T06:07:36.774Z,7.60
2023-03-04T06:10:03.815Z,7.90
2023-03-04T06:12:30.661Z,7.33
2023-03-04T06:14:57.332Z,6.80
2023-03-04T06:17:23.953Z,7.07
2023-03-04T06:19:50.602Z,8.57
2023-03-04T06:22:17.215Z,7.07
2023-03-04T06:24:43.830Z,7.10
2023-03-04T06:27:10.494Z,6.80
2023-03-04T06:29:37.074Z,6.87
2023-03-04T06:32:03.783Z,7.20
2023-03-04T06:34:30.501Z,7.47
2023-03-04T06:36:57.182Z,6.80
2023-03-04T06:39:23.944Z,6.80
2023-03-04T06:41:50.688Z,6.60
2023-03-04T06:44:17.506Z,6.20
2023-03-04T06:46:44.205Z,5.90
2023-03-04T06:49:10.809Z,6.67
2023-03-04T06:51:38.233Z,6.07
2023-03-04T06:54:04.883Z,5.97
2023-03-04T06:56:31.575Z,4.67
2023-03-04T06:58:58.179Z,5.60
2023-03-04T07:01:26.389Z,4.90
2023-03-04T07:03:54.000Z,5.07
2023-03-04T07:06:22.145Z,5.10
2023-03-04T07:08:49.104Z,6.03
2023-03-04T07:11:16.014Z,6.00
2023-03-04T07:13:42.724Z,5.20
2023-03-04T07:16:10.830Z,4.57
2023-03-04T07:18:38.814Z,5.27
2023-03-04T07:21:06.185Z,4.87
2023-03-04T07:23:33.099Z,4.97
2023-03-04T07:25:59.888Z,4.93
2023-03-04T07:28:26.910Z,5.93
2023-03-04T07:30:53.635Z,5.37
2023-03-04T07:33:20.282Z,5.20
2023-03-04T07:35:47.040Z,5.27
2023-03-04T07:38:13.674Z,4.73
2023-03-04T07:40:40.612Z,5.17
2023-03-04T07:43:07.193Z,4.63
2023-03-04T07:45:33.987Z,4.57
2023-03-04T07:48:00.796Z,4.47
2023-03-04T07:50:27.611Z,4.63
2023-03-04T07:52:54.412Z,5.60
2023-03-04T07:55:21.013Z,4.27
2023-03-04T07:57:48.120Z,4.20
2023-03-04T08:00:15.697Z,3.60
2023-03-04T08:02:46.103Z,4.10
2023-03-04T08:05:12.957Z,3.77
2023-03-04T08:07:39.571Z,4.43
2023-03-04T08:10:06.537Z,4.60
2023-03-04T08:12:33.744Z,5.17
2023-03-04T08:15:00.530Z,4.20
2023-03-04T08:17:29.763Z,4.27
2023-03-04T08:19:56.466Z,3.87
2023-03-04T08:22:23.130Z,3.63
2023-03-04T08:24:49.772Z,3.97
2023-03-04T08:27:17.039Z,4.53
2023-03-04T08:29:43.659Z,4.47
2023-03-04T08:32:10.586Z,4.83
2023-03-04T08:34:39.146Z,3.67
2023-03-04T08:37:06.174Z,3.60
2023-03-04T08:39:35.675Z,4.53
2023-03-04T08:42:02.511Z,4.30
2023-03-04T08:44:29.254Z,3.10
2023-03-04T08:46:55.828Z,3.10
2023-03-04T08:49:22.532Z,3.40
2023-03-04T08:51:50.297Z,3.63
2023-03-04T08:54:17.029Z,2.43
2023-03-04T08:56:43.718Z,3.33
2023-03-04T08:59:10.634Z,2.67
2023-03-04T09:01:37.306Z,3.10
2023-03-04T09:04:04.015Z,3.27
2023-03-04T09:06:30.640Z,2.40
2023-03-04T09:08:57.244Z,2.60
2023-03-04T09:11:23.898Z,2.33
2023-03-04T09:13:51.890Z,2.40
2023-03-04T09:16:18.906Z,2.70
2023-03-04T09:18:45.550Z,2.87
2023-03-04T09:21:12.264Z,1.80
2023-03-04T09:23:39.709Z,2.03
2023-03-04T09:26:19.410Z,1.57
2023-03-04T09:28:46.140Z,2.10
2023-03-04T09:31:13.573Z,1.73
2023-03-04T09:33:41.673Z,1.90
2023-03-04T09:36:09.112Z,2.00
2023-03-04T09:38:35.755Z,1.97
2023-03-04T09:41:04.662Z,2.20
2023-03-04T09:43:32.338Z,1.93
2023-03-04T09:46:01.172Z,2.17
2023-03-04T09:48:29.148Z,1.77
2023-03-04T09:51:03.465Z,2.07
2023-03-04T09:53:48.833Z,2.20
2023-03-04T09:56:16.117Z,2.50
2023-03-04T09:58:47.055Z,1.83
2023-03-04T10:01:14.354Z,2.43
2023-03-04T10:04:04.862Z,2.53
2023-03-04T10:06:32.039Z,1.53
2023-03-04T10:08:58.655Z,1.47
2023-03-04T10:11:40.102Z,1.80
2023-03-04T10:14:22.098Z,2.00
2023-03-04T10:16:54.561Z,1.87
2023-03-04T10:19:35.028Z,6.03
2023-03-04T10:22:01.933Z,3.57
2023-03-04T10:24:29.665Z,3.27
2023-03-04T10:27:01.581Z,2.63
2023-03-04T10:29:29.908Z,4.33
2023-03-04T10:31:57.107Z,4.40
2023-03-04T10:34:24.200Z,4.27
2023-03-04T10:36:55.523Z,4.30
2023-03-04T10:39:26.186Z,2.50
2023-03-04T10:41:58.063Z,2.30
2023-03-04T10:44:25.069Z,2.13
2023-03-04T10:46:54.594Z,2.37
2023-03-04T10:49:21.800Z,2.10
2023-03-04T10:52:14.172Z,1.63
2023-03-04T10:54:42.536Z,1.70
2023-03-04T10:57:16.997Z,2.10
2023-03-04T10:59:55.523Z,1.77
2023-03-04T11:02:28.412Z,1.90
2023-03-04T11:04:56.876Z,3.67
2023-03-04T11:07:25.011Z,2.50
2023-03-04T11:09:51.921Z,2.20
2023-03-04T11:12:20.663Z,2.17
2023-03-04T11:14:51.945Z,2.63
2023-03-04T11:17:22.978Z,4.30
2023-03-04T11:19:55.791Z,2.20
2023-03-04T11:22:23.877Z,2.33
2023-03-04T11:25:13.544Z,2.27
2023-03-04T11:27:46.310Z,2.47
2023-03-04T11:30:22.152Z,1.90
2023-03-04T11:32:51.713Z,1.63
2023-03-04T11:35:22.350Z,1.90
2023-03-04T11:37:54.349Z,2.10
2023-03-04T11:40:29.220Z,2.20
2023-03-04T11:43:00.558Z,1.80
2023-03-04T11:45:45.928Z,1.27
2023-03-04T11:48:24.002Z,1.27
2023-03-04T11:50:57.310Z,1.50
2023-03-04T11:53:24.891Z,2.20
2023-03-04T11:55:59.594Z,1.70
2023-03-04T11:58:45.172Z,1.23
2023-03-04T12:01:28.234Z,1.53
2023-03-04T12:04:07.121Z,1.37
2023-03-04T12:06:54.124Z,1.13
2023-03-04T12:09:23.790Z,1.60
2023-03-04T12:12:01.534Z,1.50
2023-03-04T12:14:30.817Z,1.73
2023-03-04T12:17:06.765Z,2.13
2023-03-04T12:19:41.677Z,1.30
2023-03-04T12:22:27.604Z,1.53
2023-03-04T12:25:19.315Z,1.53
2023-03-04T12:27:53.564Z,1.50
2023-03-04T12:30:23.292Z,2.30
2023-03-04T12:33:12.728Z,1.90
2023-03-04T12:35:52.447Z,1.60
2023-03-04T12:38:31.161Z,1.60
2023-03-04T12:41:01.021Z,1.60
2023-03-04T12:43:27.624Z,1.90
2023-03-04T12:46:02.729Z,1.30
2023-03-04T12:48:29.402Z,1.30
2023-03-04T12:51:14.711Z,1.30
2023-03-04T12:53:51.777Z,1.50
2023-03-04T12:56:38.662Z,1.40
2023-03-04T12:59:06.445Z,1.67
2023-03-04T13:01:39.887Z,1.60
2023-03-04T13:04:12.748Z,1.90
2023-03-04T13:06:39.367Z,1.57
2023-03-04T13:09:28.533Z,1.50
2023-03-04T13:12:02.401Z,1.70
2023-03-04T13:14:30.016Z,1.40
2023-03-04T13:16:58.949Z,1.80
2023-03-04T13:19:47.280Z,1.60
2023-03-04T13:22:30.553Z,2.33
2023-03-04T13:24:58.129Z,2.23
2023-03-04T13:27:54.218Z,1.93
2023-03-04T13:30:33.473Z,1.67
2023-03-04T13:33:09.564Z,1.60
2023-03-04T13:36:00.263Z,1.60
2023-03-04T13:38:27.006Z,1.60
2023-03-04T13:41:13.444Z,1.63
2023-03-04T13:43:50.846Z,1.63
2023-03-04T13:46:20.484Z,1.70
2023-03-04T13:48:47.284Z,1.80
2023-03-04T13:51:28.973Z,1.90
2023-03-04T13:54:08.138Z,1.50
2023-03-04T13:56:38.714Z,1.67
2023-03-04T13:59:11.556Z,2.40
2023-03-04T14:01:45.032Z,2.20
2023-03-04T14:04:28.641Z,2.50
2023-03-04T14:06:58.288Z,1.83
2023-03-04T14:09:27.217Z,1.70
2023-03-04T14:11:58.651Z,2.20
2023-03-04T14:14:27.382Z,2.40
2023-03-04T14:17:01.405Z,1.50
2023-03-04T14:19:38.713Z,1.77
2023-03-04T14:22:20.663Z,1.87
2023-03-04T14:25:04.576Z,1.70
2023-03-04T14:27:33.221Z,1.90
2023-03-04T14:30:00.911Z,2.20
2023-03-04T14:32:28.513Z,1.90
2023-03-04T14:34:58.724Z,1.80
2023-03-04T14:37:26.852Z,2.03
2023-03-04T14:39:55.907Z,2.07
2023-03-04T14:42:25.193Z,2.17
2023-03-04T14:44:52.143Z,2.97
2023-03-04T14:47:26.340Z,3.10
2023-03-04T14:49:53.394Z,3.33
2023-03-04T14:52:33.718Z,4.17
2023-03-04T14:55:22.404Z,2.50
2023-03-04T14:57:58.171Z,2.80
2023-03-04T15:00:28.242Z,2.10
2023-03-04T15:02:56.586Z,2.40
2023-03-04T15:05:30.871Z,2.30
2023-03-04T15:07:59.077Z,2.77
2023-03-04T15:10:27.625Z,2.50
2023-03-04T15:12:56.089Z,2.53
2023-03-04T15:15:40.042Z,2.27
2023-03-04T15:18:18.966Z,4.60
2023-03-04T15:21:05.860Z,3.30
2023-03-04T15:23:33.648Z,4.00
2023-03-04T15:26:02.157Z,2.67
2023-03-04T15:28:31.968Z,3.27
2023-03-04T15:30:58.803Z,3.00
2023-03-04T15:33:25.922Z,3.00
2023-03-04T15:35:54.518Z,3.23
2023-03-04T15:38:21.274Z,3.17
2023-03-04T15:40:48.729Z,3.80
2023-03-04T15:43:17.732Z,3.83
2023-03-04T15:45:45.091Z,3.43
2023-03-04T15:48:12.863Z,3.37
2023-03-04T15:50:42.994Z,4.47
2023-03-04T15:53:31.355Z,3.07
2023-03-04T15:55:58.058Z,3.47
2023-03-04T15:58:24.887Z,3.63
2023-03-04T16:00:51.648Z,4.13
2023-03-04T16:03:19.658Z,3.60
2023-03-04T16:05:48.035Z,3.60
2023-03-04T16:08:16.269Z,4.23
2023-03-04T16:10:44.240Z,4.10
2023-03-04T16:13:18.515Z,4.47
2023-03-04T16:15:45.608Z,4.07
2023-03-04T16:18:13.055Z,5.37
2023-03-04T16:20:40.617Z,5.40
2023-03-04T16:23:10.723Z,4.87
2023-03-04T16:25:37.463Z,4.80
2023-03-04T16:28:04.236Z,4.67
2023-03-04T16:30:31.303Z,5.00
2023-03-04T16:32:58.644Z,5.00
2023-03-04T16:35:27.253Z,5.33
2023-03-04T16:37:54.196Z,5.50
2023-03-04T16:40:24.156Z,5.07
2023-03-04T16:42:51.127Z,6.30
2023-03-04T16:45:18.829Z,6.07
2023-03-04T16:47:45.638Z,6.27
2023-03-04T16:50:14.647Z,7.20
2023-03-04T16:52:43.314Z,5.90
2023-03-04T16:55:14.957Z,5.40
2023-03-04T16:57:41.660Z,5.40
2023-03-04T17:00:08.990Z,4.90
2023-03-04T17:02:35.719Z,4.83
2023-03-04T17:05:02.429Z,5.10
2023-03-04T17:07:29.139Z,6.87
2023-03-04T17:09:55.768Z,5.80
2023-03-04T17:12:22.497Z,5.47
2023-03-04T17:14:49.302Z,5.40
2023-03-04T17:17:18.404Z,5.33
2023-03-04T17:19:45.282Z,6.00
2023-03-04T17:22:11.980Z,5.73
2023-03-04T17:24:38.846Z,5.67
2023-03-04T17:27:05.559Z,5.83
2023-03-04T17:29:32.252Z,6.53
2023-03-04T17:31:58.984Z,5.93
2023-03-04T17:34:26.034Z,7.43
2023-03-04T17:36:55.614Z,6.43
2023-03-04T17:39:22.830Z,7.60
2023-03-04T17:41:50.397Z,6.90
2023-03-04T17:44:18.001Z,7.50
2023-03-04T17:46:47.481Z,8.07
2023-03-04T17:49:14.940Z,7.80
2023-03-04T17:51:42.501Z,8.37
2023-03-04T17:54:09.726Z,9.83
2023-03-04T17:56:37.182Z,9.53
2023-03-04T17:59:05.773Z,9.57
2023-03-04T18:01:32.482Z,9.43
2023-03-04T18:03:59.155Z,9.53
2023-03-04T18:06:26.384Z,8.67
2023-03-04T18:08:53.604Z,9.37
2023-03-04T18:11:21.077Z,8.60
2023-03-04T18:13:48.185Z,9.30
2023-03-04T18:16:18.779Z,10.60
2023-03-04T18:18:45.870Z,10.90
2023-03-04T18:21:13.700Z,11.50
2023-03-04T18:23:40.349Z,10.53
2023-03-04T18:26:07.281Z,10.57
2023-03-04T18:28:33.962Z,11.30
2023-03-04T18:31:01.260Z,10.23
2023-03-04T18:33:28.143Z,11.47
2023-03-04T18:36:03.505Z,11.77
2023-03-04T18:38:31.356Z,11.27
2023-03-04T18:40:59.374Z,9.73
2023-03-04T18:43:26.514Z,10.70
2023-03-04T18:46:03.449Z,9.77
2023-03-04T18:48:30.952Z,9.30
2023-03-04T18:50:58.536Z,9.27
2023-03-04T18:53:29.766Z,9.00
2023-03-04T18:56:03.910Z,8.47
2023-03-04T18:58:32.999Z,7.77
2023-03-04T19:01:00.124Z,7.70
2023-03-04T19:03:26.888Z,6.97
2023-03-04T19:05:54.301Z,5.80
2023-03-04T19:08:20.969Z,6.50
2023-03-04T19:10:47.673Z,6.70
2023-03-04T19:13:15.853Z,5.50
2023-03-04T19:15:42.539Z,6.13
2023-03-04T19:18:09.250Z,5.03
2023-03-04T19:20:37.597Z,4.90
2023-03-04T19:23:05.716Z,5.97
2023-03-04T19:25:32.369Z,6.00
2023-03-04T19:27:59.026Z,4.93
2023-03-04T19:30:25.720Z,5.20
2023-03-04T19:32:52.530Z,4.40
2023-03-04T19:35:19.255Z,4.97
2023-03-04T19:37:46.007Z,5.07
2023-03-04T19:40:12.894Z,4.70
2023-03-04T19:42:39.763Z,4.30
2023-03-04T19:45:09.703Z,4.17
2023-03-04T19:47:37.368Z,4.23
2023-03-04T19:50:07.744Z,4.40
2023-03-04T19:52:34.931Z,3.63
2023-03-04T19:55:01.891Z,3.97
2023-03-04T19:57:28.621Z,3.60
2023-03-04T19:59:55.328Z,3.07
2023-03-04T20:02:21.982Z,3.23
2023-03-04T20:04:48.789Z,3.10
2023-03-04T20:07:15.462Z,3.10
2023-03-04T20:09:42.296Z,3.23
2023-03-04T20:12:09.061Z,3.20
2023-03-04T20:14:36.837Z,5.03
2023-03-04T20:17:04.225Z,2.20
2023-03-04T20:19:31.535Z,2.93
2023-03-04T20:21:58.409Z,2.53
2023-03-04T20:24:25.651Z,4.03
2023-03-04T20:26:53.511Z,3.03
2023-03-04T20:29:20.168Z,2.37
2023-03-04T20:31:46.996Z,2.20
2023-03-04T20:34:13.816Z,2.40
2023-03-04T20:36:41.507Z,2.20
2023-03-04T20:39:25.738Z,2.50
2023-03-04T20:41:55.690Z,2.30
2023-03-04T20:44:22.353Z,2.43
2023-03-04T20:46:49.016Z,2.23
2023-03-04T20:49:19.871Z,2.30
2023-03-04T20:51:46.655Z,2.90
2023-03-04T20:54:13.608Z,2.87
2023-03-04T20:56:40.706Z,2.17
2023-03-04T20:59:08.871Z,2.27
2023-03-04T21:01:37.373Z,2.00
2023-03-04T21:04:05.162Z,2.10
2023-03-04T21:06:32.561Z,2.13
2023-03-04T21:09:04.766Z,2.80
2023-03-04T21:11:31.505Z,2.63
2023-03-04T21:13:58.223Z,2.00
2023-03-04T21:16:26.454Z,3.00
2023-03-04T21:18:53.498Z,4.10
2023-03-04T21:21:22.302Z,2.53
2023-03-04T21:23:52.545Z,1.97
2023-03-04T21:26:19.833Z,1.70
2023-03-04T21:28:47.784Z,1.80
2023-03-04T21:31:34.739Z,1.70
2023-03-04T21:34:01.477Z,2.00
2023-03-04T21:36:28.151Z,2.30
2023-03-04T21:38:54.851Z,1.80
2023-03-04T21:41:22.575Z,1.50
2023-03-04T21:43:49.679Z,1.80
2023-03-04T21:46:17.278Z,2.20
2023-03-04T21:48:45.202Z,2.27
2023-03-04T21:51:12.912Z,1.60
2023-03-04T21:53:39.704Z,1.63
2023-03-04T21:56:06.670Z,1.97
2023-03-04T21:58:35.296Z,2.10
2023-03-04T22:01:09.255Z,1.90
2023-03-04T22:03:35.923Z,2.30
2023-03-04T22:06:06.757Z,1.93
2023-03-04T22:08:33.365Z,1.83
2023-03-04T22:11:03.374Z,2.07
2023-03-04T22:13:30.013Z,2.30
2023-03-04T22:15:57.217Z,2.10
2023-03-04T22:18:24.317Z,2.00
2023-03-04T22:20:53.539Z,2.40
2023-03-04T22:23:21.179Z,1.83
2023-03-04T22:25:47.840Z,2.40
2023-03-04T22:28:14.449Z,2.40
2023-03-04T22:30:41.018Z,2.40
2023-03-04T22:33:07.632Z,2.23
2023-03-04T22:35:34.422Z,1.97
2023-03-04T22:38:01.104Z,2.13
2023-03-04T22:40:27.837Z,1.90
2023-03-04T22:42:54.782Z,2.00
2023-03-04T22:45:21.728Z,2.27
2023-03-04T22:47:52.245Z,1.90
2023-03-04T22:50:19.655Z,1.80
2023-03-04T22:52:47.457Z,2.40
2023-03-04T22:55:14.667Z,2.70
2023-03-04T22:57:41.525Z,2.47
2023-03-04T23:00:17.164Z,2.53
2023-03-04T23:02:43.940Z,2.40
2023-03-04T23:05:11.090Z,2.00
2023-03-04T23:07:38.512Z,2.03
2023-03-04T23:10:07.275Z,2.33
2023-03-04T23:12:34.326Z,1.80
2023-03-04T23:15:01.133Z,1.70
2023-03-04T23:17:27.871Z,1.77
2023-03-04T23:19:54.762Z,1.80
2023-03-04T23:22:21.412Z,2.00
2023-03-04T23:24:48.086Z,1.73
2023-03-04T23:27:14.797Z,1.40
2023-03-04T23:29:41.781Z,2.00
2023-03-04T23:32:08.593Z,1.40
2023-03-04T23:34:36.672Z,1.40
2023-03-04T23:37:03.840Z,1.50
2023-03-04T23:39:30.582Z,1.30
2023-03-04T23:41:57.328Z,1.77
2023-03-04T23:44:24.053Z,1.90
2023-03-04T23:46:50.741Z,1.27
2023-03-04T23:49:18.264Z,1.70
2023-03-04T23:51:45.349Z,1.80
2023-03-04T23:54:13.029Z,1.67
2023-03-04T23:56:40.392Z,2.10
2023-03-04T23:59:11.958Z,2.60
